sensor_id;sensor_type;location;lat;lon;timestamp;pressure;altitude;pressure_sealevel;temperature;humidity
43217;BME280;60511;42.686;23.300;2023-02-14T00:01:16;96082.63;;;21.52;24.03
43217;BME280;60511;42.686;23.300;2023-02-14T00:03:17;96034.50;;;21.22;24.21
43217;BME280;60511;42.686;23.300;2023-02-14T00:05:17;96032.94;;;21.21;23.82
43217;BME280;60511;42.686;23.300;2023-02-14T00:07:18;96046.66;;;21.34;24.14
43217;BME280;60511;42.686;23.300;2023-02-14T00:09:18;95984.81;;;20.92;24.23
43217;BME280;60511;42.686;23.300;2023-02-14T00:11:19;96036.59;;;21.25;24.06
43217;BME280;60511;42.686;23.300;2023-02-14T00:13:20;96052.53;;;21.36;24.12
43217;BME280;60511;42.686;23.300;2023-02-14T00:15:20;96039.16;;;21.31;24.25
43217;BME280;60511;42.686;23.300;2023-02-14T00:17:24;96069.66;;;21.40;23.92
43217;BME280;60511;42.686;23.300;2023-02-14T00:19:24;96059.69;;;21.40;23.99
43217;BME280;60511;42.686;23.300;2023-02-14T00:21:25;96008.66;;;20.99;24.25
43217;BME280;60511;42.686;23.300;2023-02-14T00:23:25;96091.09;;;21.59;23.95
43217;BME280;60511;42.686;23.300;2023-02-14T00:25:26;96001.97;;;20.96;24.24
43217;BME280;60511;42.686;23.300;2023-02-14T00:27:26;96020.97;;;21.14;23.98
43217;BME280;60511;42.686;23.300;2023-02-14T00:29:30;96074.97;;;21.45;24.08
43217;BME280;60511;42.686;23.300;2023-02-14T00:31:31;96093.78;;;21.59;24.28
43217;BME280;60511;42.686;23.300;2023-02-14T00:33:31;96050.31;;;21.38;24.05
43217;BME280;60511;42.686;23.300;2023-02-14T00:35:31;96032.63;;;21.23;23.89
43217;BME280;60511;42.686;23.300;2023-02-14T00:37:32;96062.69;;;21.39;24.07
43217;BME280;60511;42.686;23.300;2023-02-14T00:41:33;96091.09;;;21.59;24.21
43217;BME280;60511;42.686;23.300;2023-02-14T00:43:34;96034.22;;;21.24;23.97
43217;BME280;60511;42.686;23.300;2023-02-14T00:45:34;96051.75;;;21.35;23.96
43217;BME280;60511;42.686;23.300;2023-02-14T00:47:34;95958.06;;;20.73;24.14
43217;BME280;60511;42.686;23.300;2023-02-14T00:49:35;96046.22;;;21.40;24.05
43217;BME280;60511;42.686;23.300;2023-02-14T00:51:35;96026.44;;;21.22;24.24
43217;BME280;60511;42.686;23.300;2023-02-14T00:53:36;96062.81;;;21.48;24.02
43217;BME280;60511;42.686;23.300;2023-02-14T00:55:36;96074.13;;;21.58;24.26
43217;BME280;60511;42.686;23.300;2023-02-14T00:57:37;96038.81;;;21.23;24.22
43217;BME280;60511;42.686;23.300;2023-02-14T00:59:37;96070.63;;;21.58;24.15
43217;BME280;60511;42.686;23.300;2023-02-14T01:01:38;96070.31;;;21.59;23.92
43217;BME280;60511;42.686;23.300;2023-02-14T01:03:39;96018.53;;;21.26;24.05
43217;BME280;60511;42.686;23.300;2023-02-14T01:05:39;96060.94;;;21.57;24.08
43217;BME280;60511;42.686;23.300;2023-02-14T01:07:40;96077.13;;;21.57;23.99
43217;BME280;60511;42.686;23.300;2023-02-14T01:09:40;95985.47;;;21.12;24.21
43217;BME280;60511;42.686;23.300;2023-02-14T01:11:40;96030.19;;;21.35;23.96
43217;BME280;60511;42.686;23.300;2023-02-14T01:13:42;96057.16;;;21.58;24.23
43217;BME280;60511;42.686;23.300;2023-02-14T01:15:46;96058.75;;;21.59;23.93
43217;BME280;60511;42.686;23.300;2023-02-14T01:17:47;95863.72;;;20.19;23.96
43217;BME280;60511;42.686;23.300;2023-02-14T01:19:51;95959.31;;;20.90;24.14
43217;BME280;60511;42.686;23.300;2023-02-14T01:21:51;95934.06;;;20.77;24.04
43217;BME280;60511;42.686;23.300;2023-02-14T01:23:53;96055.25;;;21.58;24.23
43217;BME280;60511;42.686;23.300;2023-02-14T01:25:54;96047.78;;;21.55;24.00
43217;BME280;60511;42.686;23.300;2023-02-14T01:27:54;96044.53;;;21.44;24.26
43217;BME280;60511;42.686;23.300;2023-02-14T01:29:55;95803.13;;;19.99;24.23
43217;BME280;60511;42.686;23.300;2023-02-14T01:31:55;95963.41;;;21.01;24.18
43217;BME280;60511;42.686;23.300;2023-02-14T01:33:56;95856.94;;;20.36;24.07
43217;BME280;60511;42.686;23.300;2023-02-14T01:35:57;95986.16;;;21.17;24.07
43217;BME280;60511;42.686;23.300;2023-02-14T01:37:58;95945.94;;;20.98;24.23
43217;BME280;60511;42.686;23.300;2023-02-14T01:39:58;96028.63;;;21.57;24.15
43217;BME280;60511;42.686;23.300;2023-02-14T01:41:59;95973.00;;;21.16;24.26
43217;BME280;60511;42.686;23.300;2023-02-14T01:44:03;96022.75;;;21.55;24.15
43217;BME280;60511;42.686;23.300;2023-02-14T01:46:03;95970.31;;;21.16;24.13
43217;BME280;60511;42.686;23.300;2023-02-14T01:48:04;95966.69;;;21.20;24.13
43217;BME280;60511;42.686;23.300;2023-02-14T01:50:10;95922.94;;;20.92;24.16
43217;BME280;60511;42.686;23.300;2023-02-14T01:52:15;95970.84;;;21.26;24.18
43217;BME280;60511;42.686;23.300;2023-02-14T01:54:18;95937.94;;;21.07;23.95
43217;BME280;60511;42.686;23.300;2023-02-14T01:56:23;96006.47;;;21.60;24.45
43217;BME280;60511;42.686;23.300;2023-02-14T01:58:28;95896.84;;;20.93;24.28
43217;BME280;60511;42.686;23.300;2023-02-14T02:00:34;95856.47;;;20.56;24.32
43217;BME280;60511;42.686;23.300;2023-02-14T02:02:56;96014.97;;;21.53;24.31
43217;BME280;60511;42.686;23.300;2023-02-14T02:04:57;95970.06;;;21.26;24.26
43217;BME280;60511;42.686;23.300;2023-02-14T02:07:01;95974.72;;;21.34;24.41
43217;BME280;60511;42.686;23.300;2023-02-14T02:09:14;95963.09;;;21.25;24.36
43217;BME280;60511;42.686;23.300;2023-02-14T02:11:15;95997.06;;;21.35;24.36
43217;BME280;60511;42.686;23.300;2023-02-14T02:13:18;95944.91;;;21.08;24.56
43217;BME280;60511;42.686;23.300;2023-02-14T02:15:22;95867.81;;;20.53;24.49
43217;BME280;60511;42.686;23.300;2023-02-14T02:27:19;95959.25;;;21.17;24.50
43217;BME280;60511;42.686;23.300;2023-02-14T02:37:20;95981.66;;;21.49;24.54
43217;BME280;60511;42.686;23.300;2023-02-14T02:51:53;95907.66;;;21.01;24.32
43217;BME280;60511;42.686;23.300;2023-02-14T02:54:19;95965.94;;;21.42;24.53
43217;BME280;60511;42.686;23.300;2023-02-14T02:56:30;95975.88;;;21.42;24.37
43217;BME280;60511;42.686;23.300;2023-02-14T02:58:52;95918.81;;;21.09;24.07
43217;BME280;60511;42.686;23.300;2023-02-14T03:00:55;95980.00;;;21.39;24.28
43217;BME280;60511;42.686;23.300;2023-02-14T03:02:57;95945.97;;;21.21;24.19
43217;BME280;60511;42.686;23.300;2023-02-14T03:05:16;95898.66;;;20.83;24.51
43217;BME280;60511;42.686;23.300;2023-02-14T03:07:16;95889.66;;;20.88;24.41
43217;BME280;60511;42.686;23.300;2023-02-14T03:11:48;95949.56;;;21.16;24.46
43217;BME280;60511;42.686;23.300;2023-02-14T03:27:29;95936.28;;;21.20;24.40
43217;BME280;60511;42.686;23.300;2023-02-14T03:34:09;95954.44;;;21.37;24.09
43217;BME280;60511;42.686;23.300;2023-02-14T03:36:16;95934.75;;;21.27;24.42
43217;BME280;60511;42.686;23.300;2023-02-14T03:40:52;95714.41;;;19.77;24.18
43217;BME280;60511;42.686;23.300;2023-02-14T03:43:04;95903.78;;;20.94;24.32
43217;BME280;60511;42.686;23.300;2023-02-14T03:45:12;95913.53;;;21.03;24.32
43217;BME280;60511;42.686;23.300;2023-02-14T03:47:18;95927.53;;;21.14;24.33
43217;BME280;60511;42.686;23.300;2023-02-14T03:49:23;95947.31;;;21.32;24.55
43217;BME280;60511;42.686;23.300;2023-02-14T03:53:29;95879.50;;;20.85;24.36
43217;BME280;60511;42.686;23.300;2023-02-14T03:55:35;95933.78;;;21.23;24.55
43217;BME280;60511;42.686;23.300;2023-02-14T03:57:51;95849.41;;;20.83;24.19
43217;BME280;60511;42.686;23.300;2023-02-14T03:59:53;95916.59;;;21.33;24.28
43217;BME280;60511;42.686;23.300;2023-02-14T04:02:08;95927.38;;;21.33;24.37
43217;BME280;60511;42.686;23.300;2023-02-14T04:04:13;95889.34;;;21.12;24.48
43217;BME280;60511;42.686;23.300;2023-02-14T04:06:17;95864.84;;;20.91;24.41
43217;BME280;60511;42.686;23.300;2023-02-14T04:08:23;95757.06;;;20.28;24.41
43217;BME280;60511;42.686;23.300;2023-02-14T04:10:25;95784.09;;;20.46;24.28
43217;BME280;60511;42.686;23.300;2023-02-14T04:12:25;95816.66;;;20.58;24.45
43217;BME280;60511;42.686;23.300;2023-02-14T04:14:26;95809.84;;;20.61;24.37
43217;BME280;60511;42.686;23.300;2023-02-14T04:16:28;95895.66;;;21.07;24.41
43217;BME280;60511;42.686;23.300;2023-02-14T04:18:29;95828.56;;;20.66;24.25
43217;BME280;60511;42.686;23.300;2023-02-14T04:20:47;95913.47;;;21.17;24.12
43217;BME280;60511;42.686;23.300;2023-02-14T04:22:48;95819.59;;;20.57;24.41
43217;BME280;60511;42.686;23.300;2023-02-14T04:24:50;95903.97;;;21.20;24.52
43217;BME280;60511;42.686;23.300;2023-02-14T04:26:50;95788.22;;;20.30;24.62
43217;BME280;60511;42.686;23.300;2023-02-14T04:29:09;95854.41;;;20.76;24.35
43217;BME280;60511;42.686;23.300;2023-02-14T04:31:09;95820.91;;;20.59;24.27
43217;BME280;60511;42.686;23.300;2023-02-14T04:33:10;95916.69;;;21.28;24.14
43217;BME280;60511;42.686;23.300;2023-02-14T04:35:10;95838.59;;;20.74;24.52
43217;BME280;60511;42.686;23.300;2023-02-14T04:37:11;95887.59;;;21.07;24.37
43217;BME280;60511;42.686;23.300;2023-02-14T04:39:11;95848.00;;;20.85;24.15
43217;BME280;60511;42.686;23.300;2023-02-14T04:41:12;95863.22;;;20.90;24.41
43217;BME280;60511;42.686;23.300;2023-02-14T04:43:12;95847.53;;;20.83;24.31
43217;BME280;60511;42.686;23.300;2023-02-14T04:45:13;95905.94;;;21.28;24.60
43217;BME280;60511;42.686;23.300;2023-02-14T04:47:14;95871.94;;;21.10;24.62
43217;BME280;60511;42.686;23.300;2023-02-14T04:49:14;95861.09;;;21.01;24.29
43217;BME280;60511;42.686;23.300;2023-02-14T04:51:14;95896.88;;;21.24;24.43
43217;BME280;60511;42.686;23.300;2023-02-14T04:53:15;95851.25;;;20.96;24.87
43217;BME280;60511;42.686;23.300;2023-02-14T04:55:18;95838.84;;;20.86;24.16
43217;BME280;60511;42.686;23.300;2023-02-14T04:57:18;95843.66;;;20.98;24.41
43217;BME280;60511;42.686;23.300;2023-02-14T04:59:19;95828.56;;;20.89;24.98
43217;BME280;60511;42.686;23.300;2023-02-14T05:01:19;95813.16;;;20.80;24.78
43217;BME280;60511;42.686;23.300;2023-02-14T05:03:20;95837.44;;;20.89;24.34
43217;BME280;60511;42.686;23.300;2023-02-14T05:05:20;95909.13;;;21.30;24.73
43217;BME280;60511;42.686;23.300;2023-02-14T05:07:21;95674.13;;;19.77;24.76
43217;BME280;60511;42.686;23.300;2023-02-14T05:09:21;95783.78;;;20.47;24.61
43217;BME280;60511;42.686;23.300;2023-02-14T05:11:21;95886.16;;;21.10;24.33
43217;BME280;60511;42.686;23.300;2023-02-14T05:13:22;95499.88;;;18.66;24.52
43217;BME280;60511;42.686;23.300;2023-02-14T05:15:22;95894.94;;;21.16;24.30
43217;BME280;60511;42.686;23.300;2023-02-14T05:17:23;95678.41;;;19.78;24.23
43217;BME280;60511;42.686;23.300;2023-02-14T05:19:23;95804.47;;;20.61;24.43
43217;BME280;60511;42.686;23.300;2023-02-14T05:21:23;95897.84;;;21.28;24.23
43217;BME280;60511;42.686;23.300;2023-02-14T05:23:24;95744.28;;;20.12;24.22
43217;BME280;60511;42.686;23.300;2023-02-14T05:25:24;95816.59;;;20.72;24.07
43217;BME280;60511;42.686;23.300;2023-02-14T05:27:25;95813.41;;;20.70;24.43
43217;BME280;60511;42.686;23.300;2023-02-14T05:29:25;95879.03;;;21.05;24.37
43217;BME280;60511;42.686;23.300;2023-02-14T05:31:27;95818.16;;;20.73;24.41
43217;BME280;60511;42.686;23.300;2023-02-14T05:33:27;95580.38;;;19.16;24.35
43217;BME280;60511;42.686;23.300;2023-02-14T05:35:27;95834.69;;;20.80;24.24
43217;BME280;60511;42.686;23.300;2023-02-14T05:37:28;95810.16;;;20.59;24.45
43217;BME280;60511;42.686;23.300;2023-02-14T05:39:28;95753.78;;;20.32;24.19
43217;BME280;60511;42.686;23.300;2023-02-14T05:41:29;95642.53;;;19.60;24.31
43217;BME280;60511;42.686;23.300;2023-02-14T05:43:29;95898.16;;;21.26;24.30
43217;BME280;60511;42.686;23.300;2023-02-14T05:45:30;95889.78;;;21.28;24.49
43217;BME280;60511;42.686;23.300;2023-02-14T05:47:30;95832.00;;;20.80;24.06
43217;BME280;60511;42.686;23.300;2023-02-14T05:49:30;95831.66;;;20.82;24.29
43217;BME280;60511;42.686;23.300;2023-02-14T05:51:31;95835.72;;;20.93;24.28
43217;BME280;60511;42.686;23.300;2023-02-14T05:53:32;95888.50;;;21.25;24.23
43217;BME280;60511;42.686;23.300;2023-02-14T05:55:33;95725.94;;;20.14;24.19
43217;BME280;60511;42.686;23.300;2023-02-14T05:57:33;95889.91;;;21.23;24.38
43217;BME280;60511;42.686;23.300;2023-02-14T05:59:34;95848.25;;;20.98;24.29
43217;BME280;60511;42.686;23.300;2023-02-14T06:01:34;95790.94;;;20.52;24.41
43217;BME280;60511;42.686;23.300;2023-02-14T06:03:35;95805.44;;;20.65;24.30
43217;BME280;60511;42.686;23.300;2023-02-14T06:05:35;95687.72;;;19.94;24.40
43217;BME280;60511;42.686;23.300;2023-02-14T06:07:35;95808.69;;;20.76;24.33
43217;BME280;60511;42.686;23.300;2023-02-14T06:09:36;95850.16;;;20.97;24.29
43217;BME280;60511;42.686;23.300;2023-02-14T06:11:36;95848.78;;;20.86;24.17
43217;BME280;60511;42.686;23.300;2023-02-14T06:13:36;95770.59;;;20.37;24.29
43217;BME280;60511;42.686;23.300;2023-02-14T06:15:39;95879.81;;;21.06;24.19
43217;BME280;60511;42.686;23.300;2023-02-14T06:17:39;95894.44;;;21.14;24.54
43217;BME280;60511;42.686;23.300;2023-02-14T06:19:40;95904.50;;;21.31;24.20
43217;BME280;60511;42.686;23.300;2023-02-14T06:21:41;95911.94;;;21.25;24.30
43217;BME280;60511;42.686;23.300;2023-02-14T06:23:41;95889.06;;;21.14;24.30
43217;BME280;60511;42.686;23.300;2023-02-14T06:25:42;95865.03;;;20.95;24.26
43217;BME280;60511;42.686;23.300;2023-02-14T06:27:42;95805.94;;;20.67;24.72
43217;BME280;60511;42.686;23.300;2023-02-14T06:29:43;95916.69;;;21.28;24.49
43217;BME280;60511;42.686;23.300;2023-02-14T06:31:43;95893.22;;;21.20;24.65
43217;BME280;60511;42.686;23.300;2023-02-14T06:33:43;95810.53;;;20.66;24.63
43217;BME280;60511;42.686;23.300;2023-02-14T06:35:44;95846.59;;;20.88;24.48
43217;BME280;60511;42.686;23.300;2023-02-14T06:37:44;95680.75;;;19.93;24.19
43217;BME280;60511;42.686;23.300;2023-02-14T06:39:44;95712.25;;;20.01;24.51
43217;BME280;60511;42.686;23.300;2023-02-14T06:41:45;95918.78;;;21.31;24.41
43217;BME280;60511;42.686;23.300;2023-02-14T06:43:46;95872.06;;;21.04;24.47
43217;BME280;60511;42.686;23.300;2023-02-14T06:45:49;95862.88;;;21.05;24.45
43217;BME280;60511;42.686;23.300;2023-02-14T06:47:49;95796.09;;;20.62;24.70
43217;BME280;60511;42.686;23.300;2023-02-14T06:49:50;95837.47;;;20.98;24.45
43217;BME280;60511;42.686;23.300;2023-02-14T06:51:50;95868.16;;;21.11;24.28
43217;BME280;60511;42.686;23.300;2023-02-14T06:53:51;95863.59;;;21.20;24.10
43217;BME280;60511;42.686;23.300;2023-02-14T06:55:51;95905.34;;;21.31;24.27
43217;BME280;60511;42.686;23.300;2023-02-14T06:57:51;95750.06;;;20.41;24.01
43217;BME280;60511;42.686;23.300;2023-02-14T06:59:52;95773.16;;;20.65;24.43
43217;BME280;60511;42.686;23.300;2023-02-14T07:01:52;95755.09;;;20.43;23.97
43217;BME280;60511;42.686;23.300;2023-02-14T07:03:53;95778.44;;;20.70;24.23
43217;BME280;60511;42.686;23.300;2023-02-14T07:05:53;95838.47;;;21.02;24.05
43217;BME280;60511;42.686;23.300;2023-02-14T07:07:54;95831.19;;;21.02;24.12
43217;BME280;60511;42.686;23.300;2023-02-14T07:09:54;95755.25;;;20.60;24.08
43217;BME280;60511;42.686;23.300;2023-02-14T07:11:54;95828.38;;;21.07;23.92
43217;BME280;60511;42.686;23.300;2023-02-14T07:13:55;95757.31;;;20.63;23.97
43217;BME280;60511;42.686;23.300;2023-02-14T07:15:55;95763.34;;;20.60;23.90
43217;BME280;60511;42.686;23.300;2023-02-14T07:17:56;95879.97;;;21.32;23.98
43217;BME280;60511;42.686;23.300;2023-02-14T07:19:56;95767.47;;;20.44;24.27
43217;BME280;60511;42.686;23.300;2023-02-14T07:21:56;95795.63;;;20.60;24.15
43217;BME280;60511;42.686;23.300;2023-02-14T07:23:57;95874.72;;;21.27;24.05
43217;BME280;60511;42.686;23.300;2023-02-14T07:25:57;95782.94;;;20.61;24.24
43217;BME280;60511;42.686;23.300;2023-02-14T07:27:57;95835.41;;;20.95;24.04
43217;BME280;60511;42.686;23.300;2023-02-14T07:29:58;95849.72;;;21.04;24.18
43217;BME280;60511;42.686;23.300;2023-02-14T07:31:58;95890.06;;;21.26;24.11
43217;BME280;60511;42.686;23.300;2023-02-14T07:33:59;95854.13;;;21.00;24.02
43217;BME280;60511;42.686;23.300;2023-02-14T07:36:04;95887.72;;;21.25;24.16
43217;BME280;60511;42.686;23.300;2023-02-14T07:38:04;95772.72;;;20.49;23.84
43217;BME280;60511;42.686;23.300;2023-02-14T07:40:05;95790.22;;;20.60;24.01
43217;BME280;60511;42.686;23.300;2023-02-14T07:42:06;95860.66;;;21.07;24.14
43217;BME280;60511;42.686;23.300;2023-02-14T07:44:07;95797.88;;;20.67;23.99
43217;BME280;60511;42.686;23.300;2023-02-14T07:46:07;95896.09;;;21.23;24.24
43217;BME280;60511;42.686;23.300;2023-02-14T07:48:08;95813.91;;;20.72;24.07
43217;BME280;60511;42.686;23.300;2023-02-14T07:50:08;95862.09;;;21.05;24.40
43217;BME280;60511;42.686;23.300;2023-02-14T07:52:09;95802.31;;;20.72;24.19
43217;BME280;60511;42.686;23.300;2023-02-14T07:54:09;95772.53;;;20.45;24.25
43217;BME280;60511;42.686;23.300;2023-02-14T07:56:09;95857.63;;;21.00;24.26
43217;BME280;60511;42.686;23.300;2023-02-14T07:58:10;95841.41;;;20.92;24.40
43217;BME280;60511;42.686;23.300;2023-02-14T08:00:10;95697.06;;;19.97;24.27
43217;BME280;60511;42.686;23.300;2023-02-14T08:02:11;95687.72;;;19.94;24.37
43217;BME280;60511;42.686;23.300;2023-02-14T08:04:12;95849.03;;;20.98;24.28
43217;BME280;60511;42.686;23.300;2023-02-14T08:06:16;95849.28;;;20.88;24.46
43217;BME280;60511;42.686;23.300;2023-02-14T08:10:17;95916.25;;;21.35;24.63
43217;BME280;60511;42.686;23.300;2023-02-14T08:12:17;95896.09;;;21.23;24.72
43217;BME280;60511;42.686;23.300;2023-02-14T08:14:36;95912.44;;;21.27;24.32
43217;BME280;60511;42.686;23.300;2023-02-14T08:16:37;95855.25;;;20.99;24.47
43217;BME280;60511;42.686;23.300;2023-02-14T08:18:40;95780.91;;;20.44;24.52
43217;BME280;60511;42.686;23.300;2023-02-14T08:20:40;95882.09;;;21.13;24.31
43217;BME280;60511;42.686;23.300;2023-02-14T08:22:41;95926.25;;;21.34;24.38
43217;BME280;60511;42.686;23.300;2023-02-14T08:24:41;95913.97;;;21.19;24.47
43217;BME280;60511;42.686;23.300;2023-02-14T08:26:42;95911.81;;;21.30;24.46
43217;BME280;60511;42.686;23.300;2023-02-14T08:28:43;95835.47;;;20.81;24.47
43217;BME280;60511;42.686;23.300;2023-02-14T08:30:44;95833.72;;;20.76;24.25
43217;BME280;60511;42.686;23.300;2023-02-14T08:32:44;95773.13;;;20.42;24.16
43217;BME280;60511;42.686;23.300;2023-02-14T08:34:46;95917.56;;;21.37;24.02
43217;BME280;60511;42.686;23.300;2023-02-14T08:36:46;95836.50;;;20.71;24.14
43217;BME280;60511;42.686;23.300;2023-02-14T08:38:47;95916.75;;;21.37;24.11
43217;BME280;60511;42.686;23.300;2023-02-14T08:40:48;95742.97;;;20.23;24.25
43217;BME280;60511;42.686;23.300;2023-02-14T08:42:48;95836.91;;;20.78;23.84
43217;BME280;60511;42.686;23.300;2023-02-14T08:44:48;95857.53;;;20.92;24.13
43217;BME280;60511;42.686;23.300;2023-02-14T08:46:49;95866.41;;;20.92;24.13
43217;BME280;60511;42.686;23.300;2023-02-14T08:48:49;95716.66;;;19.97;24.19
43217;BME280;60511;42.686;23.300;2023-02-14T08:50:50;95904.22;;;21.10;24.00
43217;BME280;60511;42.686;23.300;2023-02-14T08:53:06;95869.28;;;20.96;24.33
43217;BME280;60511;42.686;23.300;2023-02-14T08:55:13;95781.00;;;20.39;24.12
43217;BME280;60511;42.686;23.300;2023-02-14T08:57:13;95909.19;;;21.16;24.09
43217;BME280;60511;42.686;23.300;2023-02-14T08:59:14;95904.91;;;21.15;24.20
43217;BME280;60511;42.686;23.300;2023-02-14T09:01:16;95794.22;;;20.49;24.43
43217;BME280;60511;42.686;23.300;2023-02-14T09:03:17;95883.53;;;20.96;24.43
43217;BME280;60511;42.686;23.300;2023-02-14T09:05:19;95763.84;;;20.26;24.50
43217;BME280;60511;42.686;23.300;2023-02-14T09:07:21;95887.03;;;21.19;24.08
43217;BME280;60511;42.686;23.300;2023-02-14T09:09:22;95830.41;;;20.79;24.38
43217;BME280;60511;42.686;23.300;2023-02-14T09:11:23;95887.34;;;21.18;24.48
43217;BME280;60511;42.686;23.300;2023-02-14T09:13:24;95806.56;;;20.64;24.30
43217;BME280;60511;42.686;23.300;2023-02-14T09:15:24;95878.72;;;21.07;24.45
43217;BME280;60511;42.686;23.300;2023-02-14T09:17:25;95845.25;;;20.77;24.27
43217;BME280;60511;42.686;23.300;2023-02-14T09:19:25;95890.41;;;21.25;24.37
43217;BME280;60511;42.686;23.300;2023-02-14T09:21:26;95903.47;;;21.40;24.21
43217;BME280;60511;42.686;23.300;2023-02-14T09:23:27;95816.25;;;20.74;24.40
43217;BME280;60511;42.686;23.300;2023-02-14T09:25:27;95856.56;;;21.10;24.35
43217;BME280;60511;42.686;23.300;2023-02-14T09:27:27;95870.69;;;21.16;24.21
43217;BME280;60511;42.686;23.300;2023-02-14T09:29:28;95922.84;;;21.42;24.53
43217;BME280;60511;42.686;23.300;2023-02-14T09:31:29;95635.84;;;19.57;24.52
43217;BME280;60511;42.686;23.300;2023-02-14T09:33:30;95869.53;;;21.08;24.29
43217;BME280;60511;42.686;23.300;2023-02-14T09:35:31;95810.59;;;20.75;24.40
43217;BME280;60511;42.686;23.300;2023-02-14T09:37:31;95631.59;;;19.56;24.44
43217;BME280;60511;42.686;23.300;2023-02-14T09:39:50;95870.25;;;21.22;24.52
43217;BME280;60511;42.686;23.300;2023-02-14T09:44:30;95901.78;;;21.44;24.44
43217;BME280;60511;42.686;23.300;2023-02-14T09:46:39;95904.78;;;21.43;24.48
43217;BME280;60511;42.686;23.300;2023-02-14T09:48:45;95905.25;;;21.45;24.67
43217;BME280;60511;42.686;23.300;2023-02-14T09:50:47;95897.50;;;21.43;24.50
43217;BME280;60511;42.686;23.300;2023-02-14T09:52:52;95892.13;;;21.43;24.46
43217;BME280;60511;42.686;23.300;2023-02-14T09:54:57;95902.06;;;21.43;24.79
43217;BME280;60511;42.686;23.300;2023-02-14T09:57:07;95894.81;;;21.43;24.83
43217;BME280;60511;42.686;23.300;2023-02-14T10:06:44;95888.31;;;21.44;25.03
43217;BME280;60511;42.686;23.300;2023-02-14T10:09:23;95834.41;;;21.13;24.69
43217;BME280;60511;42.686;23.300;2023-02-14T10:11:22;95872.63;;;21.46;24.75
43217;BME280;60511;42.686;23.300;2023-02-14T10:13:47;95869.56;;;21.39;24.70
43217;BME280;60511;42.686;23.300;2023-02-14T10:15:54;95869.09;;;21.37;24.82
43217;BME280;60511;42.686;23.300;2023-02-14T10:18:26;95867.25;;;21.46;24.73
43217;BME280;60511;42.686;23.300;2023-02-14T10:20:32;95849.03;;;21.21;24.82
43217;BME280;60511;42.686;23.300;2023-02-14T10:22:41;95871.16;;;21.40;24.94
43217;BME280;60511;42.686;23.300;2023-02-14T10:24:44;95879.63;;;21.48;24.94
43217;BME280;60511;42.686;23.300;2023-02-14T10:26:48;95833.00;;;21.16;24.71
43217;BME280;60511;42.686;23.300;2023-02-14T10:28:49;95812.22;;;21.07;24.79
43217;BME280;60511;42.686;23.300;2023-02-14T10:35:18;95856.09;;;21.39;24.91
43217;BME280;60511;42.686;23.300;2023-02-14T10:51:41;95841.00;;;21.30;24.57
43217;BME280;60511;42.686;23.300;2023-02-14T10:56:50;95872.03;;;21.50;24.79
43217;BME280;60511;42.686;23.300;2023-02-14T10:58:54;95832.97;;;21.38;24.60
43217;BME280;60511;42.686;23.300;2023-02-14T11:01:09;95850.00;;;21.48;24.53
43217;BME280;60511;42.686;23.300;2023-02-14T11:03:11;95812.25;;;21.16;24.64
43217;BME280;60511;42.686;23.300;2023-02-14T11:05:35;95858.22;;;21.51;24.70
43217;BME280;60511;42.686;23.300;2023-02-14T11:07:37;95843.13;;;21.41;24.52
43217;BME280;60511;42.686;23.300;2023-02-14T11:09:37;95842.31;;;21.41;24.60
43217;BME280;60511;42.686;23.300;2023-02-14T11:13:51;95702.00;;;20.48;24.70
43217;BME280;60511;42.686;23.300;2023-02-14T11:15:52;95794.16;;;21.08;24.55
43217;BME280;60511;42.686;23.300;2023-02-14T11:20:26;95857.13;;;21.52;24.50
43217;BME280;60511;42.686;23.300;2023-02-14T11:22:31;95864.09;;;21.53;24.49
43217;BME280;60511;42.686;23.300;2023-02-14T11:24:34;95849.38;;;21.51;24.65
43217;BME280;60511;42.686;23.300;2023-02-14T11:26:35;95859.53;;;21.54;24.49
43217;BME280;60511;42.686;23.300;2023-02-14T11:28:43;95820.44;;;21.34;24.37
43217;BME280;60511;42.686;23.300;2023-02-14T11:30:48;95793.78;;;21.23;24.41
43217;BME280;60511;42.686;23.300;2023-02-14T11:32:49;95836.84;;;21.55;24.51
43217;BME280;60511;42.686;23.300;2023-02-14T11:35:02;95826.56;;;21.57;24.46
43217;BME280;60511;42.686;23.300;2023-02-14T11:37:15;95824.16;;;21.46;24.70
43217;BME280;60511;42.686;23.300;2023-02-14T11:39:31;95828.97;;;21.58;24.50
43217;BME280;60511;42.686;23.300;2023-02-14T11:43:47;95780.63;;;21.31;24.48
43217;BME280;60511;42.686;23.300;2023-02-14T11:45:48;95722.81;;;20.88;24.50
43217;BME280;60511;42.686;23.300;2023-02-14T11:48:15;95723.78;;;20.92;24.50
43217;BME280;60511;42.686;23.300;2023-02-14T11:50:22;95749.50;;;21.07;24.53
43217;BME280;60511;42.686;23.300;2023-02-14T11:52:24;95799.59;;;21.48;24.50
43217;BME280;60511;42.686;23.300;2023-02-14T11:54:39;95667.47;;;20.64;24.36
43217;BME280;60511;42.686;23.300;2023-02-14T11:56:53;95815.97;;;21.60;24.53
43217;BME280;60511;42.686;23.300;2023-02-14T11:58:57;95805.19;;;21.60;24.48
43217;BME280;60511;42.686;23.300;2023-02-14T12:00:59;95811.38;;;21.61;24.59
43217;BME280;60511;42.686;23.300;2023-02-14T12:03:03;95803.94;;;21.58;24.49
43217;BME280;60511;42.686;23.300;2023-02-14T12:09:26;95731.81;;;21.15;24.57
43217;BME280;60511;42.686;23.300;2023-02-14T12:11:28;95677.38;;;20.86;24.38
43217;BME280;60511;42.686;23.300;2023-02-14T12:13:32;95726.09;;;21.16;24.48
43217;BME280;60511;42.686;23.300;2023-02-14T12:15:57;95637.41;;;20.62;24.64
43217;BME280;60511;42.686;23.300;2023-02-14T12:18:05;95788.25;;;21.60;24.43
43217;BME280;60511;42.686;23.300;2023-02-14T12:20:21;95790.44;;;21.58;24.26
43217;BME280;60511;42.686;23.300;2023-02-14T12:22:30;95795.50;;;21.59;24.38
43217;BME280;60511;42.686;23.300;2023-02-14T12:24:37;95789.81;;;21.61;24.43
43217;BME280;60511;42.686;23.300;2023-02-14T12:26:49;95783.16;;;21.58;24.53